sensor_id;sensor_type;location;lat;lon;timestamp;temperature;humidity
19862;DHT22;10093;48.148;8.542;2023-06-14T00:01:41;7.80;99.90
19862;DHT22;10093;48.148;8.542;2023-06-14T00:04:06;7.70;99.90
19862;DHT22;10093;48.148;8.542;2023-06-14T00:06:34;7.60;99.90
19862;DHT22;10093;48.148;8.542;2023-06-14T00:09:00;7.60;99.90
19862;DHT22;10093;48.148;8.542;2023-06-14T00:11:25;7.60;99.90
19862;DHT22;10093;48.148;8.542;2023-06-14T00:13:52;7.60;99.90
19862;DHT22;10093;48.148;8.542;2023-06-14T00:16:18;7.40;99.90
19862;DHT22;10093;48.148;8.542;2023-06-14T00:18:45;7.40;99.90
19862;DHT22;10093;48.148;8.542;2023-06-14T00:21:11;7.50;99.90
19862;DHT22;10093;48.148;8.542;2023-06-14T00:23:37;7.40;99.90
19862;DHT22;10093;48.148;8.542;2023-06-14T00:26:03;7.30;99.90
19862;DHT22;10093;48.148;8.542;2023-06-14T00:28:29;7.30;99.90
19862;DHT22;10093;48.148;8.542;2023-06-14T00:30:54;7.20;99.90
19862;DHT22;10093;48.148;8.542;2023-06-14T00:33:20;7.20;99.90
19862;DHT22;10093;48.148;8.542;2023-06-14T00:35:46;7.10;99.90
19862;DHT22;10093;48.148;8.542;2023-06-14T00:38:12;7.10;99.90
19862;DHT22;10093;48.148;8.542;2023-06-14T00:40:38;6.90;99.90
19862;DHT22;10093;48.148;8.542;2023-06-14T00:43:04;7.00;99.90
19862;DHT22;10093;48.148;8.542;2023-06-14T00:45:29;6.70;99.90
19862;DHT22;10093;48.148;8.542;2023-06-14T00:47:57;6.70;99.90
19862;DHT22;10093;48.148;8.542;2023-06-14T00:50:23;6.70;99.90
19862;DHT22;10093;48.148;8.542;2023-06-14T00:52:49;6.70;99.90
19862;DHT22;10093;48.148;8.542;2023-06-14T00:55:18;6.80;99.90
19862;DHT22;10093;48.148;8.542;2023-06-14T00:57:47;6.70;99.90
19862;DHT22;10093;48.148;8.542;2023-06-14T01:00:13;6.50;99.90
19862;DHT22;10093;48.148;8.542;2023-06-14T01:02:39;6.60;99.90
19862;DHT22;10093;48.148;8.542;2023-06-14T01:05:06;6.70;99.90
19862;DHT22;10093;48.148;8.542;2023-06-14T01:15:55;6.40;99.90
19862;DHT22;10093;48.148;8.542;2023-06-14T01:18:22;6.20;99.90
19862;DHT22;10093;48.148;8.542;2023-06-14T01:20:49;6.00;99.90
19862;DHT22;10093;48.148;8.542;2023-06-14T01:23:19;5.80;99.90
19862;DHT22;10093;48.148;8.542;2023-06-14T01:25:45;6.00;99.90
19862;DHT22;10093;48.148;8.542;2023-06-14T01:28:13;6.10;99.90
19862;DHT22;10093;48.148;8.542;2023-06-14T01:30:44;6.20;99.90
19862;DHT22;10093;48.148;8.542;2023-06-14T01:33:13;6.30;99.90
19862;DHT22;10093;48.148;8.542;2023-06-14T01:35:46;6.20;99.90
19862;DHT22;10093;48.148;8.542;2023-06-14T01:38:17;6.20;99.90
19862;DHT22;10093;48.148;8.542;2023-06-14T01:40:45;6.20;99.90
19862;DHT22;10093;48.148;8.542;2023-06-14T01:43:15;6.10;99.90
19862;DHT22;10093;48.148;8.542;2023-06-14T01:45:42;5.80;99.90
19862;DHT22;10093;48.148;8.542;2023-06-14T01:48:08;5.60;99.90
19862;DHT22;10093;48.148;8.542;2023-06-14T01:50:35;5.60;99.90
19862;DHT22;10093;48.148;8.542;2023-06-14T01:53:00;5.40;99.90
19862;DHT22;10093;48.148;8.542;2023-06-14T01:55:26;5.20;99.90
19862;DHT22;10093;48.148;8.542;2023-06-14T01:57:52;5.30;99.90
19862;DHT22;10093;48.148;8.542;2023-06-14T02:00:27;5.30;99.90
19862;DHT22;10093;48.148;8.542;2023-06-14T02:02:56;5.30;99.90
19862;DHT22;10093;48.148;8.542;2023-06-14T02:05:21;5.40;99.90
19862;DHT22;10093;48.148;8.542;2023-06-14T02:07:47;5.40;99.90
19862;DHT22;10093;48.148;8.542;2023-06-14T02:10:13;5.20;99.90
19862;DHT22;10093;48.148;8.542;2023-06-14T02:12:40;5.10;99.90
19862;DHT22;10093;48.148;8.542;2023-06-14T02:15:06;5.20;99.90
19862;DHT22;10093;48.148;8.542;2023-06-14T02:17:32;5.30;99.90
19862;DHT22;10093;48.148;8.542;2023-06-14T02:19:58;5.30;99.90
19862;DHT22;10093;48.148;8.542;2023-06-14T02:22:24;5.00;99.90
19862;DHT22;10093;48.148;8.542;2023-06-14T02:24:49;5.30;99.90
19862;DHT22;10093;48.148;8.542;2023-06-14T02:27:15;5.30;99.90
19862;DHT22;10093;48.148;8.542;2023-06-14T02:29:42;5.30;99.90
19862;DHT22;10093;48.148;8.542;2023-06-14T02:32:07;5.30;99.90
19862;DHT22;10093;48.148;8.542;2023-06-14T02:34:34;5.30;99.90
19862;DHT22;10093;48.148;8.542;2023-06-14T02:37:00;5.20;99.90
19862;DHT22;10093;48.148;8.542;2023-06-14T02:39:28;4.90;99.90
19862;DHT22;10093;48.148;8.542;2023-06-14T02:41:53;4.80;99.90
19862;DHT22;10093;48.148;8.542;2023-06-14T02:44:19;5.00;99.90
19862;DHT22;10093;48.148;8.542;2023-06-14T02:46:49;5.10;99.90
19862;DHT22;10093;48.148;8.542;2023-06-14T02:49:14;5.20;99.90
19862;DHT22;10093;48.148;8.542;2023-06-14T02:51:40;5.20;99.90
19862;DHT22;10093;48.148;8.542;2023-06-14T02:54:06;5.20;99.90
19862;DHT22;10093;48.148;8.542;2023-06-14T02:56:31;5.30;99.90
19862;DHT22;10093;48.148;8.542;2023-06-14T02:58:57;5.30;99.90
19862;DHT22;10093;48.148;8.542;2023-06-14T03:01:25;5.30;99.90
19862;DHT22;10093;48.148;8.542;2023-06-14T03:04:03;5.20;99.90
19862;DHT22;10093;48.148;8.542;2023-06-14T03:06:29;5.30;99.90
19862;DHT22;10093;48.148;8.542;2023-06-14T03:08:56;5.10;99.90
19862;DHT22;10093;48.148;8.542;2023-06-14T03:11:25;4.80;99.90
19862;DHT22;10093;48.148;8.542;2023-06-14T03:13:51;5.00;99.90
19862;DHT22;10093;48.148;8.542;2023-06-14T03:16:17;5.00;99.90
19862;DHT22;10093;48.148;8.542;2023-06-14T03:18:51;5.00;99.90
19862;DHT22;10093;48.148;8.542;2023-06-14T03:21:20;5.00;99.90
19862;DHT22;10093;48.148;8.542;2023-06-14T03:23:46;4.90;99.90
19862;DHT22;10093;48.148;8.542;2023-06-14T03:26:12;4.60;99.90
19862;DHT22;10093;48.148;8.542;2023-06-14T03:28:46;4.60;99.90
19862;DHT22;10093;48.148;8.542;2023-06-14T03:31:12;4.50;99.90
19862;DHT22;10093;48.148;8.542;2023-06-14T03:33:38;4.50;99.90
19862;DHT22;10093;48.148;8.542;2023-06-14T03:36:05;4.60;99.90
19862;DHT22;10093;48.148;8.542;2023-06-14T03:38:31;4.70;99.90
19862;DHT22;10093;48.148;8.542;2023-06-14T03:40:56;4.70;99.90
19862;DHT22;10093;48.148;8.542;2023-06-14T03:43:22;4.60;99.90
19862;DHT22;10093;48.148;8.542;2023-06-14T03:45:47;4.50;99.90
19862;DHT22;10093;48.148;8.542;2023-06-14T03:48:14;4.40;99.90
19862;DHT22;10093;48.148;8.542;2023-06-14T03:50:40;4.40;99.90
19862;DHT22;10093;48.148;8.542;2023-06-14T03:53:06;4.80;99.90
19862;DHT22;10093;48.148;8.542;2023-06-14T03:55:32;5.00;99.90
19862;DHT22;10093;48.148;8.542;2023-06-14T03:57:58;5.10;99.90
19862;DHT22;10093;48.148;8.542;2023-06-14T04:00:24;5.10;99.90
19862;DHT22;10093;48.148;8.542;2023-06-14T04:02:50;5.20;99.90
19862;DHT22;10093;48.148;8.542;2023-06-14T04:05:15;5.00;99.90
19862;DHT22;10093;48.148;8.542;2023-06-14T04:07:42;4.90;99.90
19862;DHT22;10093;48.148;8.542;2023-06-14T04:10:14;4.90;99.90
19862;DHT22;10093;48.148;8.542;2023-06-14T04:12:40;4.80;99.90
19862;DHT22;10093;48.148;8.542;2023-06-14T04:15:06;4.80;99.90
19862;DHT22;10093;48.148;8.542;2023-06-14T04:17:33;4.90;99.90
19862;DHT22;10093;48.148;8.542;2023-06-14T04:19:59;4.90;99.90
19862;DHT22;10093;48.148;8.542;2023-06-14T04:22:26;4.90;99.90
19862;DHT22;10093;48.148;8.542;2023-06-14T04:24:56;4.90;99.90
19862;DHT22;10093;48.148;8.542;2023-06-14T04:27:23;5.00;99.90
19862;DHT22;10093;48.148;8.542;2023-06-14T04:29:55;5.10;99.90
19862;DHT22;10093;48.148;8.542;2023-06-14T04:32:25;5.10;99.90
19862;DHT22;10093;48.148;8.542;2023-06-14T04:34:56;5.30;99.90
19862;DHT22;10093;48.148;8.542;2023-06-14T04:37:22;5.40;99.90
19862;DHT22;10093;48.148;8.542;2023-06-14T04:39:48;5.50;99.90
19862;DHT22;10093;48.148;8.542;2023-06-14T04:42:15;5.70;99.90
19862;DHT22;10093;48.148;8.542;2023-06-14T04:44:42;5.90;99.90
19862;DHT22;10093;48.148;8.542;2023-06-14T04:47:12;6.00;99.90
19862;DHT22;10093;48.148;8.542;2023-06-14T04:49:38;6.20;99.90
19862;DHT22;10093;48.148;8.542;2023-06-14T04:52:05;6.40;99.90
19862;DHT22;10093;48.148;8.542;2023-06-14T04:54:31;6.60;99.90
19862;DHT22;10093;48.148;8.542;2023-06-14T04:56:59;6.70;99.90
19862;DHT22;10093;48.148;8.542;2023-06-14T04:59:25;7.00;99.90
19862;DHT22;10093;48.148;8.542;2023-06-14T05:01:51;7.20;99.90
19862;DHT22;10093;48.148;8.542;2023-06-14T05:04:17;7.30;99.90
19862;DHT22;10093;48.148;8.542;2023-06-14T05:06:43;7.50;99.90
19862;DHT22;10093;48.148;8.542;2023-06-14T05:09:20;7.70;99.90
19862;DHT22;10093;48.148;8.542;2023-06-14T05:11:46;8.40;99.90
19862;DHT22;10093;48.148;8.542;2023-06-14T05:14:13;9.70;99.90
19862;DHT22;10093;48.148;8.542;2023-06-14T05:16:39;11.70;99.90
19862;DHT22;10093;48.148;8.542;2023-06-14T05:19:05;13.90;99.90
19862;DHT22;10093;48.148;8.542;2023-06-14T05:21:31;15.70;99.90
19862;DHT22;10093;48.148;8.542;2023-06-14T05:23:59;17.10;99.90
19862;DHT22;10093;48.148;8.542;2023-06-14T05:26:24;18.30;99.90
19862;DHT22;10093;48.148;8.542;2023-06-14T05:28:56;19.30;99.90
19862;DHT22;10093;48.148;8.542;2023-06-14T05:31:23;20.00;99.90
19862;DHT22;10093;48.148;8.542;2023-06-14T05:33:49;20.90;99.90
19862;DHT22;10093;48.148;8.542;2023-06-14T05:36:15;21.50;99.90
19862;DHT22;10093;48.148;8.542;2023-06-14T05:38:41;21.70;99.90
19862;DHT22;10093;48.148;8.542;2023-06-14T05:41:06;22.10;99.90
19862;DHT22;10093;48.148;8.542;2023-06-14T05:43:32;22.70;99.90
19862;DHT22;10093;48.148;8.542;2023-06-14T05:45:57;23.30;99.90
19862;DHT22;10093;48.148;8.542;2023-06-14T05:48:23;23.20;99.90
19862;DHT22;10093;48.148;8.542;2023-06-14T05:50:49;23.60;99.90
19862;DHT22;10093;48.148;8.542;2023-06-14T05:53:14;24.10;99.90
19862;DHT22;10093;48.148;8.542;2023-06-14T05:55:40;24.60;99.90
19862;DHT22;10093;48.148;8.542;2023-06-14T05:58:06;25.20;99.90
19862;DHT22;10093;48.148;8.542;2023-06-14T06:00:31;24.70;99.90
19862;DHT22;10093;48.148;8.542;2023-06-14T06:02:57;24.60;99.90
19862;DHT22;10093;48.148;8.542;2023-06-14T06:05:23;24.70;99.90
19862;DHT22;10093;48.148;8.542;2023-06-14T06:07:49;24.80;99.90
19862;DHT22;10093;48.148;8.542;2023-06-14T06:10:15;25.60;99.40
19862;DHT22;10093;48.148;8.542;2023-06-14T06:12:43;26.10;99.90
19862;DHT22;10093;48.148;8.542;2023-06-14T06:15:09;26.50;99.90
19862;DHT22;10093;48.148;8.542;2023-06-14T06:17:38;26.70;99.90
19862;DHT22;10093;48.148;8.542;2023-06-14T06:20:05;26.50;99.90
19862;DHT22;10093;48.148;8.542;2023-06-14T06:22:36;26.70;99.50
19862;DHT22;10093;48.148;8.542;2023-06-14T06:25:01;27.30;99.90
19862;DHT22;10093;48.148;8.542;2023-06-14T06:27:28;26.90;99.90
19862;DHT22;10093;48.148;8.542;2023-06-14T06:29:53;24.90;99.80
19862;DHT22;10093;48.148;8.542;2023-06-14T06:32:19;24.20;99.90
19862;DHT22;10093;48.148;8.542;2023-06-14T06:34:45;25.60;99.90
19862;DHT22;10093;48.148;8.542;2023-06-14T06:37:11;24.90;99.90
19862;DHT22;10093;48.148;8.542;2023-06-14T06:39:36;26.10;99.20
19862;DHT22;10093;48.148;8.542;2023-06-14T06:42:02;27.90;98.00
19862;DHT22;10093;48.148;8.542;2023-06-14T06:44:28;27.50;97.90
19862;DHT22;10093;48.148;8.542;2023-06-14T06:46:54;28.50;99.10
19862;DHT22;10093;48.148;8.542;2023-06-14T06:49:20;29.80;97.10
19862;DHT22;10093;48.148;8.542;2023-06-14T06:51:59;29.80;96.60
19862;DHT22;10093;48.148;8.542;2023-06-14T06:54:26;30.20;96.80
19862;DHT22;10093;48.148;8.542;2023-06-14T06:56:51;30.70;95.70
19862;DHT22;10093;48.148;8.542;2023-06-14T06:59:17;31.00;95.40
19862;DHT22;10093;48.148;8.542;2023-06-14T07:01:42;31.10;95.60
19862;DHT22;10093;48.148;8.542;2023-06-14T07:04:08;31.40;95.50
19862;DHT22;10093;48.148;8.542;2023-06-14T07:06:34;30.90;96.70
19862;DHT22;10093;48.148;8.542;2023-06-14T07:08:59;29.70;96.70
19862;DHT22;10093;48.148;8.542;2023-06-14T07:11:27;29.40;96.90
19862;DHT22;10093;48.148;8.542;2023-06-14T07:13:52;30.20;97.10
19862;DHT22;10093;48.148;8.542;2023-06-14T07:16:18;30.30;97.10
19862;DHT22;10093;48.148;8.542;2023-06-14T07:18:44;30.60;96.00
19862;DHT22;10093;48.148;8.542;2023-06-14T07:21:09;31.20;94.10
19862;DHT22;10093;48.148;8.542;2023-06-14T07:23:35;31.50;94.80
19862;DHT22;10093;48.148;8.542;2023-06-14T07:26:01;32.30;92.60
19862;DHT22;10093;48.148;8.542;2023-06-14T07:28:27;30.40;94.30
19862;DHT22;10093;48.148;8.542;2023-06-14T07:30:52;31.90;93.10
19862;DHT22;10093;48.148;8.542;2023-06-14T07:33:18;32.20;90.60
19862;DHT22;10093;48.148;8.542;2023-06-14T07:35:43;30.20;91.50
19862;DHT22;10093;48.148;8.542;2023-06-14T07:38:09;30.00;91.80
19862;DHT22;10093;48.148;8.542;2023-06-14T07:40:35;30.60;91.50
19862;DHT22;10093;48.148;8.542;2023-06-14T07:43:00;29.20;91.60
19862;DHT22;10093;48.148;8.542;2023-06-14T07:45:27;30.90;91.60
19862;DHT22;10093;48.148;8.542;2023-06-14T07:47:53;32.00;91.30
19862;DHT22;10093;48.148;8.542;2023-06-14T07:50:18;31.10;91.50
19862;DHT22;10093;48.148;8.542;2023-06-14T07:52:45;30.30;92.80
19862;DHT22;10093;48.148;8.542;2023-06-14T07:55:10;30.00;91.20
19862;DHT22;10093;48.148;8.542;2023-06-14T07:57:36;29.70;92.20
19862;DHT22;10093;48.148;8.542;2023-06-14T08:00:02;29.40;91.10
19862;DHT22;10093;48.148;8.542;2023-06-14T08:02:31;26.90;92.90
19862;DHT22;10093;48.148;8.542;2023-06-14T08:04:57;27.90;94.40
19862;DHT22;10093;48.148;8.542;2023-06-14T08:07:22;29.20;91.80
19862;DHT22;10093;48.148;8.542;2023-06-14T08:09:48;28.90;92.40
19862;DHT22;10093;48.148;8.542;2023-06-14T08:12:14;29.70;92.20
19862;DHT22;10093;48.148;8.542;2023-06-14T08:14:40;30.30;91.20
19862;DHT22;10093;48.148;8.542;2023-06-14T08:17:05;31.20;92.90
19862;DHT22;10093;48.148;8.542;2023-06-14T08:19:31;28.20;91.60
19862;DHT22;10093;48.148;8.542;2023-06-14T08:21:57;27.70;95.10
19862;DHT22;10093;48.148;8.542;2023-06-14T08:24:23;28.90;92.60
19862;DHT22;10093;48.148;8.542;2023-06-14T08:26:54;30.10;91.00
19862;DHT22;10093;48.148;8.542;2023-06-14T08:29:22;30.40;90.00
19862;DHT22;10093;48.148;8.542;2023-06-14T08:31:48;28.10;91.90
19862;DHT22;10093;48.148;8.542;2023-06-14T08:34:13;28.00;92.80
19862;DHT22;10093;48.148;8.542;2023-06-14T08:36:39;27.60;92.00
19862;DHT22;10093;48.148;8.542;2023-06-14T08:39:05;27.70;92.80
19862;DHT22;10093;48.148;8.542;2023-06-14T08:41:31;28.90;91.90
19862;DHT22;10093;48.148;8.542;2023-06-14T08:43:57;31.00;90.20
19862;DHT22;10093;48.148;8.542;2023-06-14T08:46:26;30.10;90.90
19862;DHT22;10093;48.148;8.542;2023-06-14T08:48:55;30.00;92.20
19862;DHT22;10093;48.148;8.542;2023-06-14T08:51:22;32.10;91.10
19862;DHT22;10093;48.148;8.542;2023-06-14T08:53:56;32.10;90.80
19862;DHT22;10093;48.148;8.542;2023-06-14T08:56:30;30.90;90.30
19862;DHT22;10093;48.148;8.542;2023-06-14T08:59:00;31.50;91.50
19862;DHT22;10093;48.148;8.542;2023-06-14T09:01:33;30.20;90.00
19862;DHT22;10093;48.148;8.542;2023-06-14T09:03:59;28.70;90.60
19862;DHT22;10093;48.148;8.542;2023-06-14T09:06:25;27.70;90.10
19862;DHT22;10093;48.148;8.542;2023-06-14T09:08:54;26.40;92.40
19862;DHT22;10093;48.148;8.542;2023-06-14T09:11:20;24.90;92.40
19862;DHT22;10093;48.148;8.542;2023-06-14T09:13:46;26.40;92.40
19862;DHT22;10093;48.148;8.542;2023-06-14T09:16:13;26.90;92.90
19862;DHT22;10093;48.148;8.542;2023-06-14T09:18:41;26.10;91.40
19862;DHT22;10093;48.148;8.542;2023-06-14T09:21:09;25.20;92.80
19862;DHT22;10093;48.148;8.542;2023-06-14T09:23:39;27.40;91.00
19862;DHT22;10093;48.148;8.542;2023-06-14T09:26:10;27.60;90.50
19862;DHT22;10093;48.148;8.542;2023-06-14T09:28:40;27.30;92.00
19862;DHT22;10093;48.148;8.542;2023-06-14T09:31:07;28.90;90.60
19862;DHT22;10093;48.148;8.542;2023-06-14T09:33:34;29.90;88.80
19862;DHT22;10093;48.148;8.542;2023-06-14T09:35:59;29.70;86.50
19862;DHT22;10093;48.148;8.542;2023-06-14T09:38:25;28.20;90.70
19862;DHT22;10093;48.148;8.542;2023-06-14T09:40:51;28.90;90.40
19862;DHT22;10093;48.148;8.542;2023-06-14T09:43:17;27.80;88.80
19862;DHT22;10093;48.148;8.542;2023-06-14T09:45:44;26.60;90.20
19862;DHT22;10093;48.148;8.542;2023-06-14T09:48:14;29.00;90.50
19862;DHT22;10093;48.148;8.542;2023-06-14T09:50:45;30.30;91.30
19862;DHT22;10093;48.148;8.542;2023-06-14T09:53:12;31.40;86.20
19862;DHT22;10093;48.148;8.542;2023-06-14T09:55:40;31.80;89.20
19862;DHT22;10093;48.148;8.542;2023-06-14T09:58:07;30.60;87.00
19862;DHT22;10093;48.148;8.542;2023-06-14T10:00:34;25.50;90.90
19862;DHT22;10093;48.148;8.542;2023-06-14T10:03:14;25.60;92.00
19862;DHT22;10093;48.148;8.542;2023-06-14T10:05:45;27.30;90.60
19862;DHT22;10093;48.148;8.542;2023-06-14T10:08:14;28.00;90.20
19862;DHT22;10093;48.148;8.542;2023-06-14T10:10:42;24.60;92.00
19862;DHT22;10093;48.148;8.542;2023-06-14T10:13:09;25.60;91.90
19862;DHT22;10093;48.148;8.542;2023-06-14T10:15:48;27.20;92.50
19862;DHT22;10093;48.148;8.542;2023-06-14T10:23:59;28.50;90.50
19862;DHT22;10093;48.148;8.542;2023-06-14T10:26:26;29.70;91.20
19862;DHT22;10093;48.148;8.542;2023-06-14T10:29:00;30.40;89.20
19862;DHT22;10093;48.148;8.542;2023-06-14T10:32:05;30.60;89.00
19862;DHT22;10093;48.148;8.542;2023-06-14T10:34:31;29.90;91.20
19862;DHT22;10093;48.148;8.542;2023-06-14T10:37:04;30.40;90.10
19862;DHT22;10093;48.148;8.542;2023-06-14T10:39:31;30.20;90.50
19862;DHT22;10093;48.148;8.542;2023-06-14T10:41:58;31.60;88.60
19862;DHT22;10093;48.148;8.542;2023-06-14T10:46:55;30.00;90.20
19862;DHT22;10093;48.148;8.542;2023-06-14T10:49:42;29.90;90.40
19862;DHT22;10093;48.148;8.542;2023-06-14T10:52:12;30.20;88.80
19862;DHT22;10093;48.148;8.542;2023-06-14T10:55:15;31.00;89.60
19862;DHT22;10093;48.148;8.542;2023-06-14T10:57:47;31.10;88.90
19862;DHT22;10093;48.148;8.542;2023-06-14T11:00:16;30.40;90.10
19862;DHT22;10093;48.148;8.542;2023-06-14T11:02:51;28.30;90.90
19862;DHT22;10093;48.148;8.542;2023-06-14T11:05:25;27.90;91.80
19862;DHT22;10093;48.148;8.542;2023-06-14T11:08:17;28.40;90.80
19862;DHT22;10093;48.148;8.542;2023-06-14T11:10:45;28.60;90.70
19862;DHT22;10093;48.148;8.542;2023-06-14T11:13:11;30.00;89.80
19862;DHT22;10093;48.148;8.542;2023-06-14T11:15:37;31.30;90.30
19862;DHT22;10093;48.148;8.542;2023-06-14T11:18:05;32.10;86.90
19862;DHT22;10093;48.148;8.542;2023-06-14T11:20:33;31.40;90.50
19862;DHT22;10093;48.148;8.542;2023-06-14T11:22:59;31.90;87.90
19862;DHT22;10093;48.148;8.542;2023-06-14T11:25:26;32.70;88.40
19862;DHT22;10093;48.148;8.542;2023-06-14T11:27:54;32.80;90.20
19862;DHT22;10093;48.148;8.542;2023-06-14T11:30:21;29.30;89.40
19862;DHT22;10093;48.148;8.542;2023-06-14T11:32:47;28.20;90.70
19862;DHT22;10093;48.148;8.542;2023-06-14T11:35:14;28.40;90.60
19862;DHT22;10093;48.148;8.542;2023-06-14T11:37:39;28.90;90.00
19862;DHT22;10093;48.148;8.542;2023-06-14T11:40:08;28.80;90.80
19862;DHT22;10093;48.148;8.542;2023-06-14T11:42:35;28.20;90.10
19862;DHT22;10093;48.148;8.542;2023-06-14T11:45:01;29.80;89.80
19862;DHT22;10093;48.148;8.542;2023-06-14T11:47:39;29.90;87.40
19862;DHT22;10093;48.148;8.542;2023-06-14T11:50:09;28.10;90.10
19862;DHT22;10093;48.148;8.542;2023-06-14T11:52:36;27.40;91.10
19862;DHT22;10093;48.148;8.542;2023-06-14T11:55:03;28.30;90.00
19862;DHT22;10093;48.148;8.542;2023-06-14T11:57:35;28.30;90.60
19862;DHT22;10093;48.148;8.542;2023-06-14T12:00:07;29.10;90.40
19862;DHT22;10093;48.148;8.542;2023-06-14T12:02:37;27.90;90.40
19862;DHT22;10093;48.148;8.542;2023-06-14T12:05:07;27.20;91.70
19862;DHT22;10093;48.148;8.542;2023-06-14T12:07:39;27.90;92.10
19862;DHT22;10093;48.148;8.542;2023-06-14T12:10:08;28.70;90.70
19862;DHT22;10093;48.148;8.542;2023-06-14T12:12:39;26.60;90.90
19862;DHT22;10093;48.148;8.542;2023-06-14T12:15:06;27.70;92.20
19862;DHT22;10093;48.148;8.542;2023-06-14T12:17:36;28.40;90.90
19862;DHT22;10093;48.148;8.542;2023-06-14T12:20:11;27.40;90.10
19862;DHT22;10093;48.148;8.542;2023-06-14T12:22:52;26.40;92.50
19862;DHT22;10093;48.148;8.542;2023-06-14T12:25:31;25.00;91.20
19862;DHT22;10093;48.148;8.542;2023-06-14T12:27:58;24.60;91.90
19862;DHT22;10093;48.148;8.542;2023-06-14T12:30:24;26.10;92.60
19862;DHT22;10093;48.148;8.542;2023-06-14T12:32:49;25.60;92.70
19862;DHT22;10093;48.148;8.542;2023-06-14T12:35:17;23.90;93.50
19862;DHT22;10093;48.148;8.542;2023-06-14T12:37:44;25.80;94.50
19862;DHT22;10093;48.148;8.542;2023-06-14T12:40:11;27.60;94.50
19862;DHT22;10093;48.148;8.542;2023-06-14T12:42:37;29.50;92.40
19862;DHT22;10093;48.148;8.542;2023-06-14T12:45:03;29.70;89.90
19862;DHT22;10093;48.148;8.542;2023-06-14T12:47:29;29.40;91.00
19862;DHT22;10093;48.148;8.542;2023-06-14T12:49:55;29.60;90.40
19862;DHT22;10093;48.148;8.542;2023-06-14T12:52:20;29.90;91.20
19862;DHT22;10093;48.148;8.542;2023-06-14T12:54:46;29.90;90.80
19862;DHT22;10093;48.148;8.542;2023-06-14T12:57:11;30.30;90.70
19862;DHT22;10093;48.148;8.542;2023-06-14T12:59:37;29.70;90.30
19862;DHT22;10093;48.148;8.542;2023-06-14T13:02:14;30.30;90.60
19862;DHT22;10093;48.148;8.542;2023-06-14T13:04:40;31.00;90.40
19862;DHT22;10093;48.148;8.542;2023-06-14T13:07:06;30.30;90.20
19862;DHT22;10093;48.148;8.542;2023-06-14T13:09:31;29.50;90.90
19862;DHT22;10093;48.148;8.542;2023-06-14T13:11:57;29.60;91.00
19862;DHT22;10093;48.148;8.542;2023-06-14T13:14:23;28.90;91.90
19862;DHT22;10093;48.148;8.542;2023-06-14T13:16:48;29.30;91.60
19862;DHT22;10093;48.148;8.542;2023-06-14T13:19:14;29.40;92.00
19862;DHT22;10093;48.148;8.542;2023-06-14T13:21:40;30.10;91.40
19862;DHT22;10093;48.148;8.542;2023-06-14T13:24:05;27.70;91.70
19862;DHT22;10093;48.148;8.542;2023-06-14T13:26:32;26.50;92.00
19862;DHT22;10093;48.148;8.542;2023-06-14T13:28:58;25.60;92.90
19862;DHT22;10093;48.148;8.542;2023-06-14T13:31:24;25.30;93.10
19862;DHT22;10093;48.148;8.542;2023-06-14T13:33:50;27.00;93.90
19862;DHT22;10093;48.148;8.542;2023-06-14T13:36:15;27.10;92.30
19862;DHT22;10093;48.148;8.542;2023-06-14T13:38:41;28.50;91.60
19862;DHT22;10093;48.148;8.542;2023-06-14T13:41:07;28.80;91.80
19862;DHT22;10093;48.148;8.542;2023-06-14T13:43:32;27.40;92.50
19862;DHT22;10093;48.148;8.542;2023-06-14T13:45:58;27.80;92.40
19862;DHT22;10093;48.148;8.542;2023-06-14T13:48:24;28.70;91.50
19862;DHT22;10093;48.148;8.542;2023-06-14T13:50:50;28.40;90.90
19862;DHT22;10093;48.148;8.542;2023-06-14T13:53:15;28.70;91.30
19862;DHT22;10093;48.148;8.542;2023-06-14T13:55:41;28.50;91.20
19862;DHT22;10093;48.148;8.542;2023-06-14T13:58:07;29.30;90.80
19862;DHT22;10093;48.148;8.542;2023-06-14T14:00:32;26.60;91.60
19862;DHT22;10093;48.148;8.542;2023-06-14T14:02:58;24.90;93.30
19862;DHT22;10093;48.148;8.542;2023-06-14T14:05:25;24.70;94.20
19862;DHT22;10093;48.148;8.542;2023-06-14T14:07:55;24.50;94.20
19862;DHT22;10093;48.148;8.542;2023-06-14T14:10:22;25.60;94.20
19862;DHT22;10093;48.148;8.542;2023-06-14T14:12:48;26.10;92.80
19862;DHT22;10093;48.148;8.542;2023-06-14T14:15:14;27.10;92.10
19862;DHT22;10093;48.148;8.542;2023-06-14T14:17:40;27.00;92.80
19862;DHT22;10093;48.148;8.542;2023-06-14T14:20:07;26.20;92.80
19862;DHT22;10093;48.148;8.542;2023-06-14T14:22:33;25.60;92.00
19862;DHT22;10093;48.148;8.542;2023-06-14T14:24:58;25.00;92.30
19862;DHT22;10093;48.148;8.542;2023-06-14T14:27:24;25.90;92.80
19862;DHT22;10093;48.148;8.542;2023-06-14T14:29:49;25.60;93.30
19862;DHT22;10093;48.148;8.542;2023-06-14T14:32:15;26.30;93.40
19862;DHT22;10093;48.148;8.542;2023-06-14T14:34:41;26.00;92.20
19862;DHT22;10093;48.148;8.542;2023-06-14T14:37:07;25.50;92.60
19862;DHT22;10093;48.148;8.542;2023-06-14T14:39:32;25.80;93.00
19862;DHT22;10093;48.148;8.542;2023-06-14T14:41:58;26.10;92.70
19862;DHT22;10093;48.148;8.542;2023-06-14T14:44:24;26.00;92.80
19862;DHT22;10093;48.148;8.542;2023-06-14T14:46:49;24.50;92.50
19862;DHT22;10093;48.148;8.542;2023-06-14T14:49:15;23.90;93.10
19862;DHT22;10093;48.148;8.542;2023-06-14T14:51:41;24.00;93.60
19862;DHT22;10093;48.148;8.542;2023-06-14T14:54:06;23.60;92.70
19862;DHT22;10093;48.148;8.542;2023-06-14T14:56:32;23.60;93.80
19862;DHT22;10093;48.148;8.542;2023-06-14T14:59:13;24.30;94.10
19862;DHT22;10093;48.148;8.542;2023-06-14T15:01:39;24.90;93.90
19862;DHT22;10093;48.148;8.542;2023-06-14T15:04:06;25.40;92.20
19862;DHT22;10093;48.148;8.542;2023-06-14T15:06:32;25.20;93.00
19862;DHT22;10093;48.148;8.542;2023-06-14T15:09:00;24.80;93.10
19862;DHT22;10093;48.148;8.542;2023-06-14T15:11:26;23.70;92.70
19862;DHT22;10093;48.148;8.542;2023-06-14T15:13:52;23.90;94.00
19862;DHT22;10093;48.148;8.542;2023-06-14T15:16:18;24.20;94.20
19862;DHT22;10093;48.148;8.542;2023-06-14T15:18:43;24.50;92.90
19862;DHT22;10093;48.148;8.542;2023-06-14T15:21:09;24.50;93.20
19862;DHT22;10093;48.148;8.542;2023-06-14T15:23:35;24.70;93.70
19862;DHT22;10093;48.148;8.542;2023-06-14T15:26:00;24.20;92.70
19862;DHT22;10093;48.148;8.542;2023-06-14T15:28:26;23.70;92.60
19862;DHT22;10093;48.148;8.542;2023-06-14T15:30:55;23.90;93.40
19862;DHT22;10093;48.148;8.542;2023-06-14T15:33:20;24.20;93.60
19862;DHT22;10093;48.148;8.542;2023-06-14T15:35:46;24.20;91.90
19862;DHT22;10093;48.148;8.542;2023-06-14T15:38:12;24.20;93.40
19862;DHT22;10093;48.148;8.542;2023-06-14T15:40:38;24.30;93.00
19862;DHT22;10093;48.148;8.542;2023-06-14T15:43:03;23.80;92.80
19862;DHT22;10093;48.148;8.542;2023-06-14T15:45:29;23.80;93.00
19862;DHT22;10093;48.148;8.542;2023-06-14T15:47:55;23.30;94.50
19862;DHT22;10093;48.148;8.542;2023-06-14T15:50:21;23.10;93.80
19862;DHT22;10093;48.148;8.542;2023-06-14T15:52:47;22.90;94.20